sensor_id;sensor_type;location;lat;lon;timestamp;temperature;humidity
33837;DHT22;20140;49.356;8.812;2023-07-29T00:00:46;17.60;99.90
33837;DHT22;20140;49.356;8.812;2023-07-29T00:03:11;17.60;99.90
33837;DHT22;20140;49.356;8.812;2023-07-29T00:05:37;17.70;99.90
33837;DHT22;20140;49.356;8.812;2023-07-29T00:08:03;17.70;99.90
33837;DHT22;20140;49.356;8.812;2023-07-29T00:10:30;17.60;99.90
33837;DHT22;20140;49.356;8.812;2023-07-29T00:12:56;17.60;99.90
33837;DHT22;20140;49.356;8.812;2023-07-29T00:15:21;17.60;99.90
33837;DHT22;20140;49.356;8.812;2023-07-29T00:17:47;17.70;99.90
33837;DHT22;20140;49.356;8.812;2023-07-29T00:20:13;17.70;99.90
33837;DHT22;20140;49.356;8.812;2023-07-29T00:22:38;17.70;99.90
33837;DHT22;20140;49.356;8.812;2023-07-29T00:25:04;17.70;99.90
33837;DHT22;20140;49.356;8.812;2023-07-29T00:27:29;17.70;99.90
33837;DHT22;20140;49.356;8.812;2023-07-29T00:29:55;17.70;99.90
33837;DHT22;20140;49.356;8.812;2023-07-29T00:32:20;17.70;99.90
33837;DHT22;20140;49.356;8.812;2023-07-29T00:34:46;17.70;99.90
33837;DHT22;20140;49.356;8.812;2023-07-29T00:37:11;17.70;99.90
33837;DHT22;20140;49.356;8.812;2023-07-29T00:39:37;17.60;99.90
33837;DHT22;20140;49.356;8.812;2023-07-29T00:42:03;17.60;99.90
33837;DHT22;20140;49.356;8.812;2023-07-29T00:44:29;17.70;99.90
33837;DHT22;20140;49.356;8.812;2023-07-29T00:46:57;17.70;99.90
33837;DHT22;20140;49.356;8.812;2023-07-29T00:49:23;17.60;99.90
33837;DHT22;20140;49.356;8.812;2023-07-29T00:51:48;17.60;99.90
33837;DHT22;20140;49.356;8.812;2023-07-29T00:54:14;17.60;99.90
33837;DHT22;20140;49.356;8.812;2023-07-29T00:56:40;17.60;99.90
33837;DHT22;20140;49.356;8.812;2023-07-29T00:59:07;17.60;99.90
33837;DHT22;20140;49.356;8.812;2023-07-29T01:01:33;17.60;99.90
33837;DHT22;20140;49.356;8.812;2023-07-29T01:03:58;17.60;99.90
33837;DHT22;20140;49.356;8.812;2023-07-29T01:06:39;17.50;99.90
33837;DHT22;20140;49.356;8.812;2023-07-29T01:09:24;17.50;99.90
33837;DHT22;20140;49.356;8.812;2023-07-29T01:14:52;17.50;99.90
33837;DHT22;20140;49.356;8.812;2023-07-29T01:17:23;17.50;99.90
33837;DHT22;20140;49.356;8.812;2023-07-29T01:22:20;17.50;99.90
33837;DHT22;20140;49.356;8.812;2023-07-29T01:24:46;17.50;99.90
33837;DHT22;20140;49.356;8.812;2023-07-29T01:27:12;17.50;99.90
33837;DHT22;20140;49.356;8.812;2023-07-29T01:29:37;17.50;99.90
33837;DHT22;20140;49.356;8.812;2023-07-29T01:32:19;17.50;99.90
33837;DHT22;20140;49.356;8.812;2023-07-29T01:34:45;17.40;99.90
33837;DHT22;20140;49.356;8.812;2023-07-29T01:37:19;17.50;99.90
33837;DHT22;20140;49.356;8.812;2023-07-29T01:39:49;17.40;99.90
33837;DHT22;20140;49.356;8.812;2023-07-29T01:42:17;17.40;99.90
33837;DHT22;20140;49.356;8.812;2023-07-29T01:44:43;17.40;99.90
33837;DHT22;20140;49.356;8.812;2023-07-29T01:47:08;17.40;99.90
33837;DHT22;20140;49.356;8.812;2023-07-29T01:49:35;17.40;99.90
33837;DHT22;20140;49.356;8.812;2023-07-29T01:52:01;17.40;99.90
33837;DHT22;20140;49.356;8.812;2023-07-29T01:54:27;17.40;99.90
33837;DHT22;20140;49.356;8.812;2023-07-29T01:56:52;17.40;99.90
33837;DHT22;20140;49.356;8.812;2023-07-29T01:59:18;17.40;99.90
33837;DHT22;20140;49.356;8.812;2023-07-29T02:01:43;17.40;99.90
33837;DHT22;20140;49.356;8.812;2023-07-29T02:04:09;17.40;99.90
33837;DHT22;20140;49.356;8.812;2023-07-29T02:06:34;17.40;99.90
33837;DHT22;20140;49.356;8.812;2023-07-29T02:09:00;17.40;99.90
33837;DHT22;20140;49.356;8.812;2023-07-29T02:11:25;17.40;99.90
33837;DHT22;20140;49.356;8.812;2023-07-29T02:14:30;17.40;99.90
33837;DHT22;20140;49.356;8.812;2023-07-29T02:16:55;17.40;99.90
33837;DHT22;20140;49.356;8.812;2023-07-29T02:19:20;17.40;99.90
33837;DHT22;20140;49.356;8.812;2023-07-29T02:21:46;17.50;99.90
33837;DHT22;20140;49.356;8.812;2023-07-29T02:24:11;17.40;99.90
33837;DHT22;20140;49.356;8.812;2023-07-29T02:26:37;17.40;99.90
33837;DHT22;20140;49.356;8.812;2023-07-29T02:29:02;17.60;99.90
33837;DHT22;20140;49.356;8.812;2023-07-29T02:31:28;17.60;99.90
33837;DHT22;20140;49.356;8.812;2023-07-29T02:33:54;17.50;99.90
33837;DHT22;20140;49.356;8.812;2023-07-29T02:36:19;17.50;99.90
33837;DHT22;20140;49.356;8.812;2023-07-29T02:38:45;17.40;99.90
33837;DHT22;20140;49.356;8.812;2023-07-29T02:41:11;17.50;99.90
33837;DHT22;20140;49.356;8.812;2023-07-29T02:43:38;17.40;99.90
33837;DHT22;20140;49.356;8.812;2023-07-29T02:46:04;17.50;99.90
33837;DHT22;20140;49.356;8.812;2023-07-29T02:48:30;17.40;99.90
33837;DHT22;20140;49.356;8.812;2023-07-29T02:50:56;17.40;99.90
33837;DHT22;20140;49.356;8.812;2023-07-29T02:53:22;17.40;99.90
33837;DHT22;20140;49.356;8.812;2023-07-29T02:55:48;17.40;99.90
33837;DHT22;20140;49.356;8.812;2023-07-29T02:58:13;17.40;99.90
33837;DHT22;20140;49.356;8.812;2023-07-29T03:00:39;17.40;99.90
33837;DHT22;20140;49.356;8.812;2023-07-29T03:03:07;17.40;99.90
33837;DHT22;20140;49.356;8.812;2023-07-29T03:05:33;17.40;99.90
33837;DHT22;20140;49.356;8.812;2023-07-29T03:07:59;17.40;99.90
33837;DHT22;20140;49.356;8.812;2023-07-29T03:10:25;17.40;99.90
33837;DHT22;20140;49.356;8.812;2023-07-29T03:12:50;17.40;99.90
33837;DHT22;20140;49.356;8.812;2023-07-29T03:15:16;17.40;99.90
33837;DHT22;20140;49.356;8.812;2023-07-29T03:17:42;17.30;99.90
33837;DHT22;20140;49.356;8.812;2023-07-29T03:20:08;17.30;99.90
33837;DHT22;20140;49.356;8.812;2023-07-29T03:22:33;17.40;99.90
33837;DHT22;20140;49.356;8.812;2023-07-29T03:24:59;17.30;99.90
33837;DHT22;20140;49.356;8.812;2023-07-29T03:27:24;17.30;99.90
33837;DHT22;20140;49.356;8.812;2023-07-29T03:29:50;17.30;99.90
33837;DHT22;20140;49.356;8.812;2023-07-29T03:32:15;17.30;99.90
33837;DHT22;20140;49.356;8.812;2023-07-29T03:34:41;17.30;99.90
33837;DHT22;20140;49.356;8.812;2023-07-29T03:37:06;17.30;99.90
33837;DHT22;20140;49.356;8.812;2023-07-29T03:39:32;17.30;99.90
33837;DHT22;20140;49.356;8.812;2023-07-29T03:41:58;17.30;99.90
33837;DHT22;20140;49.356;8.812;2023-07-29T03:44:23;17.30;99.90
33837;DHT22;20140;49.356;8.812;2023-07-29T03:46:49;17.20;99.90
33837;DHT22;20140;49.356;8.812;2023-07-29T03:49:14;17.20;99.90
33837;DHT22;20140;49.356;8.812;2023-07-29T03:51:40;17.20;99.90
33837;DHT22;20140;49.356;8.812;2023-07-29T03:54:06;17.20;99.90
33837;DHT22;20140;49.356;8.812;2023-07-29T03:56:32;17.20;99.90
33837;DHT22;20140;49.356;8.812;2023-07-29T03:59:04;17.20;99.90
33837;DHT22;20140;49.356;8.812;2023-07-29T04:01:30;17.20;99.90
33837;DHT22;20140;49.356;8.812;2023-07-29T04:03:55;17.30;99.90
33837;DHT22;20140;49.356;8.812;2023-07-29T04:06:21;17.50;99.90
33837;DHT22;20140;49.356;8.812;2023-07-29T04:08:48;17.60;99.90
33837;DHT22;20140;49.356;8.812;2023-07-29T04:11:13;17.50;99.90
33837;DHT22;20140;49.356;8.812;2023-07-29T04:13:39;17.40;99.90
33837;DHT22;20140;49.356;8.812;2023-07-29T04:16:05;17.40;99.90
33837;DHT22;20140;49.356;8.812;2023-07-29T04:18:31;17.30;99.90
33837;DHT22;20140;49.356;8.812;2023-07-29T04:20:56;17.30;99.90
33837;DHT22;20140;49.356;8.812;2023-07-29T04:23:22;17.40;99.90
33837;DHT22;20140;49.356;8.812;2023-07-29T04:25:47;17.40;99.90
33837;DHT22;20140;49.356;8.812;2023-07-29T04:28:13;17.40;99.90
33837;DHT22;20140;49.356;8.812;2023-07-29T04:30:39;17.40;99.90
33837;DHT22;20140;49.356;8.812;2023-07-29T04:33:04;17.40;99.90
33837;DHT22;20140;49.356;8.812;2023-07-29T04:35:30;17.40;99.90
33837;DHT22;20140;49.356;8.812;2023-07-29T04:37:55;17.40;99.90
33837;DHT22;20140;49.356;8.812;2023-07-29T04:40:21;17.30;99.90
33837;DHT22;20140;49.356;8.812;2023-07-29T04:42:48;17.40;99.90
33837;DHT22;20140;49.356;8.812;2023-07-29T04:45:13;17.40;99.90
33837;DHT22;20140;49.356;8.812;2023-07-29T04:47:39;17.40;99.90
33837;DHT22;20140;49.356;8.812;2023-07-29T04:50:05;17.40;99.90
33837;DHT22;20140;49.356;8.812;2023-07-29T04:52:31;17.40;99.90
33837;DHT22;20140;49.356;8.812;2023-07-29T04:54:57;17.40;99.90
33837;DHT22;20140;49.356;8.812;2023-07-29T04:57:22;17.50;99.90
33837;DHT22;20140;49.356;8.812;2023-07-29T04:59:48;17.60;99.90
33837;DHT22;20140;49.356;8.812;2023-07-29T05:02:13;17.50;99.90
33837;DHT22;20140;49.356;8.812;2023-07-29T05:04:39;17.50;99.90
33837;DHT22;20140;49.356;8.812;2023-07-29T05:07:04;17.50;99.90
33837;DHT22;20140;49.356;8.812;2023-07-29T05:09:30;17.50;99.90
33837;DHT22;20140;49.356;8.812;2023-07-29T05:11:56;17.50;99.90
33837;DHT22;20140;49.356;8.812;2023-07-29T05:14:21;17.60;99.90
33837;DHT22;20140;49.356;8.812;2023-07-29T05:16:47;17.70;99.90
33837;DHT22;20140;49.356;8.812;2023-07-29T05:19:13;17.70;99.90
33837;DHT22;20140;49.356;8.812;2023-07-29T05:21:38;17.70;99.90
33837;DHT22;20140;49.356;8.812;2023-07-29T05:24:04;17.70;99.90
33837;DHT22;20140;49.356;8.812;2023-07-29T05:26:30;17.80;99.90
33837;DHT22;20140;49.356;8.812;2023-07-29T05:28:55;17.70;99.90
33837;DHT22;20140;49.356;8.812;2023-07-29T05:31:22;17.80;99.90
33837;DHT22;20140;49.356;8.812;2023-07-29T05:33:47;17.70;99.90
33837;DHT22;20140;49.356;8.812;2023-07-29T05:36:13;17.80;99.90
33837;DHT22;20140;49.356;8.812;2023-07-29T05:38:38;17.90;99.90
33837;DHT22;20140;49.356;8.812;2023-07-29T05:41:04;17.90;99.90
33837;DHT22;20140;49.356;8.812;2023-07-29T05:43:29;17.80;99.90
33837;DHT22;20140;49.356;8.812;2023-07-29T05:45:55;17.80;99.90
33837;DHT22;20140;49.356;8.812;2023-07-29T05:48:20;17.90;99.90
33837;DHT22;20140;49.356;8.812;2023-07-29T05:50:46;17.80;99.90
33837;DHT22;20140;49.356;8.812;2023-07-29T05:53:12;17.80;99.90
33837;DHT22;20140;49.356;8.812;2023-07-29T05:55:37;17.80;99.90
33837;DHT22;20140;49.356;8.812;2023-07-29T05:58:03;17.80;99.90
33837;DHT22;20140;49.356;8.812;2023-07-29T06:00:28;17.90;99.90
33837;DHT22;20140;49.356;8.812;2023-07-29T06:02:54;17.90;99.90
33837;DHT22;20140;49.356;8.812;2023-07-29T06:05:19;17.90;99.90
33837;DHT22;20140;49.356;8.812;2023-07-29T06:07:45;17.90;99.90
33837;DHT22;20140;49.356;8.812;2023-07-29T06:10:15;17.90;99.90
33837;DHT22;20140;49.356;8.812;2023-07-29T06:12:44;17.90;99.90
33837;DHT22;20140;49.356;8.812;2023-07-29T06:15:11;18.00;99.90
33837;DHT22;20140;49.356;8.812;2023-07-29T06:17:37;18.00;99.90
33837;DHT22;20140;49.356;8.812;2023-07-29T06:20:04;18.00;99.90
33837;DHT22;20140;49.356;8.812;2023-07-29T06:22:29;18.10;99.90
33837;DHT22;20140;49.356;8.812;2023-07-29T06:24:55;18.10;99.90
33837;DHT22;20140;49.356;8.812;2023-07-29T06:27:20;18.10;99.90
33837;DHT22;20140;49.356;8.812;2023-07-29T06:29:46;18.10;99.90
33837;DHT22;20140;49.356;8.812;2023-07-29T06:32:11;18.30;99.90
33837;DHT22;20140;49.356;8.812;2023-07-29T06:34:37;18.40;99.90
33837;DHT22;20140;49.356;8.812;2023-07-29T06:37:02;18.40;99.90
33837;DHT22;20140;49.356;8.812;2023-07-29T06:39:28;18.50;99.90
33837;DHT22;20140;49.356;8.812;2023-07-29T06:41:53;18.50;99.90
33837;DHT22;20140;49.356;8.812;2023-07-29T06:44:19;18.50;99.90
33837;DHT22;20140;49.356;8.812;2023-07-29T06:46:44;18.70;99.90
33837;DHT22;20140;49.356;8.812;2023-07-29T06:49:10;18.70;99.90
33837;DHT22;20140;49.356;8.812;2023-07-29T06:51:35;18.70;99.90
33837;DHT22;20140;49.356;8.812;2023-07-29T06:54:02;18.80;99.90
33837;DHT22;20140;49.356;8.812;2023-07-29T06:56:28;18.70;99.90
33837;DHT22;20140;49.356;8.812;2023-07-29T06:58:53;18.80;99.90
33837;DHT22;20140;49.356;8.812;2023-07-29T07:01:19;18.80;99.90
33837;DHT22;20140;49.356;8.812;2023-07-29T07:03:44;19.00;99.90
33837;DHT22;20140;49.356;8.812;2023-07-29T07:06:10;19.20;99.90
33837;DHT22;20140;49.356;8.812;2023-07-29T07:08:35;19.30;99.90
33837;DHT22;20140;49.356;8.812;2023-07-29T07:11:01;19.30;99.90
33837;DHT22;20140;49.356;8.812;2023-07-29T07:13:26;19.30;99.90
33837;DHT22;20140;49.356;8.812;2023-07-29T07:15:55;19.40;99.90
33837;DHT22;20140;49.356;8.812;2023-07-29T07:18:21;19.40;99.90
33837;DHT22;20140;49.356;8.812;2023-07-29T07:20:50;19.40;99.90
33837;DHT22;20140;49.356;8.812;2023-07-29T07:23:17;19.40;99.90
33837;DHT22;20140;49.356;8.812;2023-07-29T07:25:42;19.50;99.90
33837;DHT22;20140;49.356;8.812;2023-07-29T07:28:09;19.50;99.90
33837;DHT22;20140;49.356;8.812;2023-07-29T07:30:34;19.50;99.90
33837;DHT22;20140;49.356;8.812;2023-07-29T07:33:00;19.60;99.90
33837;DHT22;20140;49.356;8.812;2023-07-29T07:35:26;19.70;99.90
33837;DHT22;20140;49.356;8.812;2023-07-29T07:37:52;19.70;99.90
33837;DHT22;20140;49.356;8.812;2023-07-29T07:40:17;19.70;99.90
33837;DHT22;20140;49.356;8.812;2023-07-29T07:42:43;19.90;99.90
33837;DHT22;20140;49.356;8.812;2023-07-29T07:45:08;20.10;99.90
33837;DHT22;20140;49.356;8.812;2023-07-29T07:47:34;20.20;99.90
33837;DHT22;20140;49.356;8.812;2023-07-29T07:49:59;20.40;99.90
33837;DHT22;20140;49.356;8.812;2023-07-29T07:52:25;20.40;99.90
33837;DHT22;20140;49.356;8.812;2023-07-29T07:54:54;20.40;99.90
33837;DHT22;20140;49.356;8.812;2023-07-29T07:57:21;20.50;99.90
33837;DHT22;20140;49.356;8.812;2023-07-29T07:59:47;20.50;99.90
33837;DHT22;20140;49.356;8.812;2023-07-29T08:02:12;20.50;99.90
33837;DHT22;20140;49.356;8.812;2023-07-29T08:04:38;20.50;99.90
33837;DHT22;20140;49.356;8.812;2023-07-29T08:07:04;20.40;99.90
33837;DHT22;20140;49.356;8.812;2023-07-29T08:09:29;20.50;99.90
33837;DHT22;20140;49.356;8.812;2023-07-29T08:11:55;20.30;99.90
33837;DHT22;20140;49.356;8.812;2023-07-29T08:14:20;20.10;99.90
33837;DHT22;20140;49.356;8.812;2023-07-29T08:16:46;20.10;99.90
33837;DHT22;20140;49.356;8.812;2023-07-29T08:19:12;20.10;99.90
33837;DHT22;20140;49.356;8.812;2023-07-29T08:21:37;20.20;99.90
33837;DHT22;20140;49.356;8.812;2023-07-29T08:24:03;20.20;99.90
33837;DHT22;20140;49.356;8.812;2023-07-29T08:26:29;20.20;99.90
33837;DHT22;20140;49.356;8.812;2023-07-29T08:28:54;20.30;99.90
33837;DHT22;20140;49.356;8.812;2023-07-29T08:31:20;20.30;99.90
33837;DHT22;20140;49.356;8.812;2023-07-29T08:33:45;20.30;99.90
33837;DHT22;20140;49.356;8.812;2023-07-29T08:36:11;20.40;99.90
33837;DHT22;20140;49.356;8.812;2023-07-29T08:38:36;20.60;99.90
33837;DHT22;20140;49.356;8.812;2023-07-29T08:41:14;20.70;99.90
33837;DHT22;20140;49.356;8.812;2023-07-29T08:43:50;20.90;99.90
33837;DHT22;20140;49.356;8.812;2023-07-29T08:46:19;21.10;99.90
33837;DHT22;20140;49.356;8.812;2023-07-29T08:48:45;21.20;99.90
33837;DHT22;20140;49.356;8.812;2023-07-29T08:51:12;21.40;99.90
33837;DHT22;20140;49.356;8.812;2023-07-29T08:53:38;21.30;99.90
33837;DHT22;20140;49.356;8.812;2023-07-29T08:56:05;21.20;99.90
33837;DHT22;20140;49.356;8.812;2023-07-29T08:58:31;21.20;99.90
33837;DHT22;20140;49.356;8.812;2023-07-29T09:00:57;21.20;99.90
33837;DHT22;20140;49.356;8.812;2023-07-29T09:03:22;21.20;99.90
33837;DHT22;20140;49.356;8.812;2023-07-29T09:05:48;21.20;99.90
33837;DHT22;20140;49.356;8.812;2023-07-29T09:08:14;21.20;99.90
33837;DHT22;20140;49.356;8.812;2023-07-29T09:10:40;21.20;99.90
33837;DHT22;20140;49.356;8.812;2023-07-29T09:13:06;21.10;99.90
33837;DHT22;20140;49.356;8.812;2023-07-29T09:15:35;21.00;99.90
33837;DHT22;20140;49.356;8.812;2023-07-29T09:18:09;21.00;99.90
33837;DHT22;20140;49.356;8.812;2023-07-29T09:20:35;21.20;99.90
33837;DHT22;20140;49.356;8.812;2023-07-29T09:23:01;21.30;99.90
33837;DHT22;20140;49.356;8.812;2023-07-29T09:25:28;21.40;99.90
33837;DHT22;20140;49.356;8.812;2023-07-29T09:28:00;21.50;99.90
33837;DHT22;20140;49.356;8.812;2023-07-29T09:30:26;21.60;99.90
33837;DHT22;20140;49.356;8.812;2023-07-29T09:32:55;21.50;99.90
33837;DHT22;20140;49.356;8.812;2023-07-29T09:35:21;21.50;99.90
33837;DHT22;20140;49.356;8.812;2023-07-29T09:37:47;21.70;99.90
33837;DHT22;20140;49.356;8.812;2023-07-29T09:40:14;21.70;99.90
33837;DHT22;20140;49.356;8.812;2023-07-29T09:42:48;21.80;99.90
33837;DHT22;20140;49.356;8.812;2023-07-29T09:45:22;21.70;99.90
33837;DHT22;20140;49.356;8.812;2023-07-29T09:47:49;21.80;99.90
33837;DHT22;20140;49.356;8.812;2023-07-29T09:50:15;22.10;99.90
33837;DHT22;20140;49.356;8.812;2023-07-29T09:52:41;22.40;99.90
33837;DHT22;20140;49.356;8.812;2023-07-29T09:55:07;22.40;99.90
33837;DHT22;20140;49.356;8.812;2023-07-29T09:57:33;22.50;99.90
33837;DHT22;20140;49.356;8.812;2023-07-29T09:59:59;22.50;99.90
33837;DHT22;20140;49.356;8.812;2023-07-29T10:02:26;22.80;99.90
33837;DHT22;20140;49.356;8.812;2023-07-29T10:04:54;23.10;99.90
33837;DHT22;20140;49.356;8.812;2023-07-29T10:07:21;23.30;99.90
33837;DHT22;20140;49.356;8.812;2023-07-29T10:09:47;23.50;99.90
33837;DHT22;20140;49.356;8.812;2023-07-29T10:12:14;23.60;99.90
33837;DHT22;20140;49.356;8.812;2023-07-29T10:14:40;23.30;99.90
33837;DHT22;20140;49.356;8.812;2023-07-29T10:17:06;23.30;99.90
33837;DHT22;20140;49.356;8.812;2023-07-29T10:19:34;23.10;99.90
33837;DHT22;20140;49.356;8.812;2023-07-29T10:22:03;23.00;99.90
33837;DHT22;20140;49.356;8.812;2023-07-29T10:24:33;22.70;99.90
33837;DHT22;20140;49.356;8.812;2023-07-29T10:27:00;22.90;99.90
33837;DHT22;20140;49.356;8.812;2023-07-29T10:29:38;23.00;99.90
33837;DHT22;20140;49.356;8.812;2023-07-29T10:32:05;23.00;99.90
33837;DHT22;20140;49.356;8.812;2023-07-29T10:34:32;23.00;99.90
33837;DHT22;20140;49.356;8.812;2023-07-29T10:36:58;23.10;99.90
33837;DHT22;20140;49.356;8.812;2023-07-29T10:39:25;23.00;99.90
33837;DHT22;20140;49.356;8.812;2023-07-29T10:41:55;22.90;99.90
33837;DHT22;20140;49.356;8.812;2023-07-29T10:47:20;22.80;99.90
33837;DHT22;20140;49.356;8.812;2023-07-29T10:49:49;23.00;99.90
33837;DHT22;20140;49.356;8.812;2023-07-29T10:52:16;23.10;99.90
33837;DHT22;20140;49.356;8.812;2023-07-29T10:54:43;23.20;99.90
33837;DHT22;20140;49.356;8.812;2023-07-29T10:57:13;23.20;99.90
33837;DHT22;20140;49.356;8.812;2023-07-29T10:59:39;23.30;99.90
33837;DHT22;20140;49.356;8.812;2023-07-29T11:02:15;23.50;99.90
33837;DHT22;20140;49.356;8.812;2023-07-29T11:04:50;23.20;99.90
33837;DHT22;20140;49.356;8.812;2023-07-29T11:12:33;22.90;99.90
33837;DHT22;20140;49.356;8.812;2023-07-29T11:17:32;23.40;99.90
33837;DHT22;20140;49.356;8.812;2023-07-29T11:20:01;23.60;99.90
33837;DHT22;20140;49.356;8.812;2023-07-29T11:22:26;23.60;99.90
33837;DHT22;20140;49.356;8.812;2023-07-29T11:24:53;23.60;99.90
33837;DHT22;20140;49.356;8.812;2023-07-29T11:27:19;23.60;99.90
33837;DHT22;20140;49.356;8.812;2023-07-29T11:29:44;23.80;99.90
33837;DHT22;20140;49.356;8.812;2023-07-29T11:32:10;23.70;99.90
33837;DHT22;20140;49.356;8.812;2023-07-29T11:34:35;23.50;99.90
33837;DHT22;20140;49.356;8.812;2023-07-29T11:37:01;23.50;99.90
33837;DHT22;20140;49.356;8.812;2023-07-29T11:39:27;23.40;99.90
33837;DHT22;20140;49.356;8.812;2023-07-29T11:41:52;23.50;99.90
33837;DHT22;20140;49.356;8.812;2023-07-29T11:44:18;23.70;99.90
33837;DHT22;20140;49.356;8.812;2023-07-29T11:46:44;23.80;99.90
33837;DHT22;20140;49.356;8.812;2023-07-29T11:49:10;23.80;99.90
33837;DHT22;20140;49.356;8.812;2023-07-29T11:51:36;23.90;99.90
33837;DHT22;20140;49.356;8.812;2023-07-29T11:54:02;24.20;99.90
33837;DHT22;20140;49.356;8.812;2023-07-29T11:56:29;24.30;99.90
33837;DHT22;20140;49.356;8.812;2023-07-29T11:58:55;24.30;99.90
33837;DHT22;20140;49.356;8.812;2023-07-29T12:01:21;24.40;99.90
33837;DHT22;20140;49.356;8.812;2023-07-29T12:03:47;24.50;99.90
33837;DHT22;20140;49.356;8.812;2023-07-29T12:06:14;24.60;99.90
33837;DHT22;20140;49.356;8.812;2023-07-29T12:08:39;24.70;99.90
33837;DHT22;20140;49.356;8.812;2023-07-29T12:11:05;24.70;99.90
33837;DHT22;20140;49.356;8.812;2023-07-29T12:13:31;24.70;99.90
33837;DHT22;20140;49.356;8.812;2023-07-29T12:16:03;24.40;99.90
33837;DHT22;20140;49.356;8.812;2023-07-29T12:18:30;24.60;99.90
33837;DHT22;20140;49.356;8.812;2023-07-29T12:20:56;24.90;99.90
33837;DHT22;20140;49.356;8.812;2023-07-29T12:23:24;24.90;99.90
33837;DHT22;20140;49.356;8.812;2023-07-29T12:25:56;25.10;99.90
33837;DHT22;20140;49.356;8.812;2023-07-29T12:28:22;24.90;99.90
33837;DHT22;20140;49.356;8.812;2023-07-29T12:30:48;25.00;99.90
33837;DHT22;20140;49.356;8.812;2023-07-29T12:33:38;24.90;99.90
33837;DHT22;20140;49.356;8.812;2023-07-29T12:36:05;25.00;99.90
33837;DHT22;20140;49.356;8.812;2023-07-29T12:38:30;25.20;99.90
33837;DHT22;20140;49.356;8.812;2023-07-29T12:40:56;25.10;99.90
33837;DHT22;20140;49.356;8.812;2023-07-29T12:43:22;25.10;99.90
33837;DHT22;20140;49.356;8.812;2023-07-29T12:45:51;25.30;99.90
33837;DHT22;20140;49.356;8.812;2023-07-29T12:48:16;25.20;99.90
33837;DHT22;20140;49.356;8.812;2023-07-29T12:50:42;25.20;99.90
33837;DHT22;20140;49.356;8.812;2023-07-29T12:53:08;25.20;99.90
33837;DHT22;20140;49.356;8.812;2023-07-29T12:55:37;25.30;99.90
33837;DHT22;20140;49.356;8.812;2023-07-29T12:58:03;25.40;99.90
33837;DHT22;20140;49.356;8.812;2023-07-29T13:00:29;25.50;99.90
33837;DHT22;20140;49.356;8.812;2023-07-29T13:02:55;25.60;99.90
33837;DHT22;20140;49.356;8.812;2023-07-29T13:05:20;25.70;99.90
33837;DHT22;20140;49.356;8.812;2023-07-29T13:07:46;26.10;99.90
33837;DHT22;20140;49.356;8.812;2023-07-29T13:10:12;26.10;99.90
33837;DHT22;20140;49.356;8.812;2023-07-29T13:12:38;26.10;99.90
33837;DHT22;20140;49.356;8.812;2023-07-29T13:15:05;26.30;99.90
33837;DHT22;20140;49.356;8.812;2023-07-29T13:17:31;26.40;99.90
33837;DHT22;20140;49.356;8.812;2023-07-29T13:19:56;26.40;99.90
33837;DHT22;20140;49.356;8.812;2023-07-29T13:22:22;27.00;99.90
33837;DHT22;20140;49.356;8.812;2023-07-29T13:24:47;27.10;99.90
33837;DHT22;20140;49.356;8.812;2023-07-29T13:27:13;27.40;99.90
33837;DHT22;20140;49.356;8.812;2023-07-29T13:29:39;27.10;99.90
33837;DHT22;20140;49.356;8.812;2023-07-29T13:32:06;26.90;99.90
33837;DHT22;20140;49.356;8.812;2023-07-29T13:34:31;27.70;99.90
33837;DHT22;20140;49.356;8.812;2023-07-29T13:36:57;28.40;99.90
33837;DHT22;20140;49.356;8.812;2023-07-29T13:39:23;28.70;99.90
33837;DHT22;20140;49.356;8.812;2023-07-29T13:41:48;27.90;99.90
33837;DHT22;20140;49.356;8.812;2023-07-29T13:44:14;27.60;99.90
33837;DHT22;20140;49.356;8.812;2023-07-29T13:46:39;28.30;99.90
33837;DHT22;20140;49.356;8.812;2023-07-29T13:49:05;28.60;99.90
33837;DHT22;20140;49.356;8.812;2023-07-29T13:51:30;28.70;99.90
33837;DHT22;20140;49.356;8.812;2023-07-29T13:53:56;29.00;99.90
33837;DHT22;20140;49.356;8.812;2023-07-29T13:56:22;28.80;99.90
33837;DHT22;20140;49.356;8.812;2023-07-29T13:58:47;29.00;99.90
33837;DHT22;20140;49.356;8.812;2023-07-29T14:01:13;28.30;99.90
33837;DHT22;20140;49.356;8.812;2023-07-29T14:03:38;28.70;99.90
33837;DHT22;20140;49.356;8.812;2023-07-29T14:06:04;28.10;99.90
33837;DHT22;20140;49.356;8.812;2023-07-29T14:08:30;27.60;99.90
33837;DHT22;20140;49.356;8.812;2023-07-29T14:10:55;27.90;99.90
33837;DHT22;20140;49.356;8.812;2023-07-29T14:13:21;27.90;99.90
33837;DHT22;20140;49.356;8.812;2023-07-29T14:15:46;27.40;99.90
33837;DHT22;20140;49.356;8.812;2023-07-29T14:18:12;26.70;99.90
33837;DHT22;20140;49.356;8.812;2023-07-29T14:20:37;26.10;99.90
33837;DHT22;20140;49.356;8.812;2023-07-29T14:23:03;26.50;99.90
33837;DHT22;20140;49.356;8.812;2023-07-29T14:25:28;27.80;99.90
33837;DHT22;20140;49.356;8.812;2023-07-29T14:27:55;28.70;99.90
33837;DHT22;20140;49.356;8.812;2023-07-29T14:30:20;28.10;99.90
33837;DHT22;20140;49.356;8.812;2023-07-29T14:32:46;29.20;99.90
33837;DHT22;20140;49.356;8.812;2023-07-29T14:35:11;29.20;99.90
33837;DHT22;20140;49.356;8.812;2023-07-29T14:37:37;29.40;99.90
33837;DHT22;20140;49.356;8.812;2023-07-29T14:40:04;29.40;99.90
33837;DHT22;20140;49.356;8.812;2023-07-29T14:42:30;29.00;99.90
33837;DHT22;20140;49.356;8.812;2023-07-29T14:44:55;28.80;99.90
33837;DHT22;20140;49.356;8.812;2023-07-29T14:47:21;29.40;99.90
33837;DHT22;20140;49.356;8.812;2023-07-29T14:49:46;29.50;99.90
33837;DHT22;20140;49.356;8.812;2023-07-29T14:52:12;29.70;99.40
33837;DHT22;20140;49.356;8.812;2023-07-29T14:54:37;29.30;99.40
33837;DHT22;20140;49.356;8.812;2023-07-29T14:57:05;29.10;99.70
33837;DHT22;20140;49.356;8.812;2023-07-29T14:59:31;29.00;99.70
33837;DHT22;20140;49.356;8.812;2023-07-29T15:01:57;29.20;99.90
33837;DHT22;20140;49.356;8.812;2023-07-29T15:04:22;28.20;99.90
33837;DHT22;20140;49.356;8.812;2023-07-29T15:06:48;27.40;99.90
33837;DHT22;20140;49.356;8.812;2023-07-29T15:09:13;27.70;99.90
33837;DHT22;20140;49.356;8.812;2023-07-29T15:11:39;27.00;99.90
33837;DHT22;20140;49.356;8.812;2023-07-29T15:14:06;26.50;99.90
33837;DHT22;20140;49.356;8.812;2023-07-29T15:16:31;26.30;99.90
33837;DHT22;20140;49.356;8.812;2023-07-29T15:18:59;27.20;99.90
33837;DHT22;20140;49.356;8.812;2023-07-29T15:21:24;27.60;99.90
33837;DHT22;20140;49.356;8.812;2023-07-29T15:23:50;27.70;99.90
33837;DHT22;20140;49.356;8.812;2023-07-29T15:26:15;28.10;99.90
33837;DHT22;20140;49.356;8.812;2023-07-29T15:28:41;27.80;99.90
33837;DHT22;20140;49.356;8.812;2023-07-29T15:31:06;27.20;99.90
33837;DHT22;20140;49.356;8.812;2023-07-29T15:33:32;26.80;99.90
33837;DHT22;20140;49.356;8.812;2023-07-29T15:35:59;26.50;99.90
33837;DHT22;20140;49.356;8.812;2023-07-29T15:38:25;26.30;99.90
33837;DHT22;20140;49.356;8.812;2023-07-29T15:40:51;26.10;99.90